Time;durP1;ratioP1;P1;durP2;ratioP2;P2;SDS_P1;SDS_P2;PMS_P1;PMS_P2;Temp;Humidity;BMP_temperature;BMP_pressure;BME280_temperature;BME280_humidity;BME280_pressure;Samples;Min_cycle;Max_cycle;Signal;HPM_P1;HPM_P2
2021/12/25 00:00:00;;;;;;;11.57;2.30;;;2.10;99.90;;;;;;5123777;27;20039;-69
2021/12/25 00:02:27;;;;;;;3.75;1.40;;;2.10;99.90;;;;;;5144733;27;20034;-69
2021/12/25 00:04:53;;;;;;;4.95;1.17;;;2.10;99.90;;;;;;5130250;27;20062;-69
2021/12/25 00:07:19;;;;;;;5.07;1.67;;;2.00;99.90;;;;;;5129575;27;20043;-69
2021/12/25 00:09:44;;;;;;;11.20;2.25;;;2.00;99.90;;;;;;5120714;27;20039;-69
2021/12/25 00:12:10;;;;;;;4.63;1.25;;;2.00;99.90;;;;;;5130879;27;20375;-68
2021/12/25 00:14:36;;;;;;;4.60;1.30;;;2.00;99.90;;;;;;5131373;27;20050;-69
2021/12/25 00:17:01;;;;;;;3.45;1.55;;;2.00;99.90;;;;;;5130501;27;20465;-69
2021/12/25 00:19:27;;;;;;;4.47;1.33;;;2.00;99.90;;;;;;5129145;27;20074;-69
2021/12/25 00:21:53;;;;;;;4.93;2.33;;;2.00;99.90;;;;;;5124662;27;20106;-69
2021/12/25 00:24:18;;;;;;;9.52;2.33;;;1.90;99.90;;;;;;5127041;27;20035;-69
2021/12/25 00:31:52;;;;;;;5.13;1.43;;;1.90;99.90;;;;;;5128299;27;20051;-69
2021/12/25 00:34:22;;;;;;;3.92;1.20;;;2.00;99.90;;;;;;5104257;27;20321;-69
2021/12/25 00:36:48;;;;;;;3.78;1.60;;;1.90;99.90;;;;;;5146882;27;20367;-69
2021/12/25 00:39:13;;;;;;;4.97;1.20;;;1.90;99.90;;;;;;5111269;27;20124;-68
2021/12/25 00:41:40;;;;;;;4.97;1.30;;;1.90;99.90;;;;;;5128176;27;20708;-69
2021/12/25 00:44:05;;;;;;;7.95;1.30;;;1.90;99.90;;;;;;5137757;27;20066;-69
2021/12/25 00:46:31;;;;;;;4.40;1.00;;;1.80;99.90;;;;;;5132667;27;20142;-69
2021/12/25 00:48:56;;;;;;;4.00;1.60;;;1.80;99.90;;;;;;5124243;27;20042;-69
2021/12/25 00:51:22;;;;;;;7.40;1.80;;;1.80;99.90;;;;;;5134498;27;20039;-69
2021/12/25 00:53:47;;;;;;;7.15;1.75;;;1.90;99.90;;;;;;5129319;27;20031;-69
2021/12/25 00:56:13;;;;;;;6.15;0.90;;;1.80;99.90;;;;;;5126920;27;20406;-69
2021/12/25 00:58:39;;;;;;;7.60;1.27;;;1.70;99.90;;;;;;5122434;27;20446;-69
2021/12/25 01:01:04;;;;;;;2.75;1.10;;;1.70;99.90;;;;;;5131793;27;20038;-69
2021/12/25 01:03:30;;;;;;;6.55;1.23;;;1.60;99.90;;;;;;5128995;27;20043;-69
2021/12/25 01:05:56;;;;;;;4.15;1.10;;;1.60;99.90;;;;;;5130306;27;20043;-69
2021/12/25 01:08:21;;;;;;;4.88;1.10;;;1.60;99.90;;;;;;5134177;27;20046;-69
2021/12/25 01:10:48;;;;;;;2.08;0.88;;;1.70;99.90;;;;;;5134325;27;20531;-69
2021/12/25 01:13:21;;;;;;;8.32;2.65;;;1.60;99.90;;;;;;5123306;27;20040;-69
2021/12/25 01:29:18;;;;;;;6.10;1.23;;;1.40;99.90;;;;;;5078886;27;20525;-69
2021/12/25 01:31:56;;;;;;;7.15;1.65;;;1.30;99.90;;;;;;5121881;27;20039;-69
2021/12/25 01:49:57;;;;;;;3.20;1.52;;;1.30;99.90;;;;;;5122602;27;20157;-70
2021/12/25 01:52:29;;;;;;;4.65;1.08;;;1.30;99.90;;;;;;5130758;27;20414;-70
2021/12/25 01:55:02;;;;;;;4.20;1.10;;;1.30;99.90;;;;;;5126251;28;20050;-70
2021/12/25 01:57:29;;;;;;;6.68;1.77;;;1.30;99.90;;;;;;5128273;27;20040;-70
2021/12/25 01:59:57;;;;;;;5.30;1.83;;;1.30;99.90;;;;;;5133627;27;20494;-69
2021/12/25 02:02:23;;;;;;;4.28;1.13;;;1.20;99.90;;;;;;5147768;27;20497;-70
2021/12/25 02:04:49;;;;;;;3.10;0.77;;;1.20;99.90;;;;;;5126422;27;20095;-70
2021/12/25 02:07:15;;;;;;;4.10;1.30;;;1.10;99.90;;;;;;5126360;28;20055;-69
2021/12/25 02:09:41;;;;;;;1.88;1.20;;;1.10;99.90;;;;;;5104566;27;20047;-70
2021/12/25 02:12:07;;;;;;;5.57;1.10;;;1.00;99.90;;;;;;5108208;28;20482;-69
2021/12/25 02:14:35;;;;;;;4.32;1.00;;;1.10;99.90;;;;;;5129564;28;20497;-70
2021/12/25 02:17:28;;;;;;;5.50;1.20;;;1.10;99.90;;;;;;5127517;28;20044;-70
2021/12/25 02:19:56;;;;;;;6.25;1.80;;;1.10;99.90;;;;;;5125276;27;20112;-70
2021/12/25 02:22:27;;;;;;;3.33;1.25;;;1.00;99.90;;;;;;5139560;27;20482;-70
2021/12/25 02:24:52;;;;;;;4.72;1.10;;;0.90;99.90;;;;;;5128811;27;20501;-70
2021/12/25 02:27:18;;;;;;;4.13;1.40;;;0.80;99.90;;;;;;5126754;28;20047;-69
2021/12/25 02:29:43;;;;;;;7.05;1.00;;;0.80;99.90;;;;;;5135497;27;20043;-70
2021/12/25 02:32:09;;;;;;;3.83;1.33;;;0.90;99.90;;;;;;5138285;27;20050;-70
2021/12/25 02:34:35;;;;;;;7.07;1.33;;;0.90;99.90;;;;;;5125488;27;20534;-69
2021/12/25 02:37:00;;;;;;;2.58;1.08;;;0.80;99.90;;;;;;5129775;27;20055;-69
2021/12/25 02:39:26;;;;;;;4.35;0.90;;;0.90;99.90;;;;;;5130874;27;20051;-70
2021/12/25 02:41:52;;;;;;;5.38;1.00;;;0.80;99.90;;;;;;5109051;28;20491;-70
2021/12/25 02:44:17;;;;;;;1.73;1.08;;;0.70;99.90;;;;;;5128100;27;20039;-70
2021/12/25 02:46:43;;;;;;;3.10;1.85;;;0.80;99.90;;;;;;5134361;27;20039;-69
2021/12/25 02:49:13;;;;;;;7.72;1.20;;;0.70;99.90;;;;;;5125125;27;20066;-69
2021/12/25 02:51:41;;;;;;;3.58;0.80;;;0.70;99.90;;;;;;5130881;27;20447;-70
2021/12/25 02:54:07;;;;;;;8.05;1.00;;;0.60;99.90;;;;;;5112892;27;20050;-70
2021/12/25 02:56:33;;;;;;;6.32;0.93;;;0.60;99.90;;;;;;5127096;27;20044;-70
2021/12/25 02:58:58;;;;;;;2.85;0.85;;;0.70;99.90;;;;;;5132975;27;20043;-70
2021/12/25 03:01:24;;;;;;;1.85;0.77;;;0.60;99.90;;;;;;5112603;27;20118;-70
2021/12/25 03:03:50;;;;;;;2.72;1.05;;;0.60;99.90;;;;;;5143923;27;20054;-69
2021/12/25 03:06:16;;;;;;;3.13;0.70;;;0.60;99.90;;;;;;5093388;28;20523;-70
2021/12/25 03:08:43;;;;;;;4.43;1.27;;;0.50;99.90;;;;;;5101576;27;20078;-69
2021/12/25 03:11:09;;;;;;;2.67;0.98;;;0.60;99.90;;;;;;5131050;27;20043;-70
2021/12/25 03:16:07;;;;;;;3.58;1.00;;;0.40;99.90;;;;;;5131414;27;20079;-70
2021/12/25 03:18:38;;;;;;;2.70;0.80;;;0.40;99.90;;;;;;5140636;27;20080;-70
2021/12/25 03:21:05;;;;;;;2.28;0.90;;;0.50;99.90;;;;;;5121867;27;20279;-70
2021/12/25 03:23:33;;;;;;;2.45;0.73;;;0.40;99.90;;;;;;5127206;27;20133;-70
2021/12/25 03:26:00;;;;;;;2.10;1.38;;;0.30;99.90;;;;;;5131087;27;20043;-70
2021/12/25 03:28:30;;;;;;;4.43;1.00;;;0.30;99.90;;;;;;5130865;27;20042;-70
2021/12/25 03:31:04;;;;;;;1.85;0.68;;;0.30;99.90;;;;;;5110322;27;20439;-70
2021/12/25 03:33:31;;;;;;;2.65;0.63;;;0.30;99.90;;;;;;5111911;27;20059;-70
2021/12/25 03:35:57;;;;;;;2.10;0.70;;;0.20;99.90;;;;;;5130157;27;20043;-70
2021/12/25 03:38:26;;;;;;;3.42;1.30;;;0.30;99.90;;;;;;5129443;27;20035;-70
2021/12/25 03:40:52;;;;;;;0.45;0.45;;;0.20;99.90;;;;;;5113729;27;20051;-70
2021/12/25 03:43:19;;;;;;;1.50;0.80;;;0.20;99.90;;;;;;5122488;27;20043;-70
2021/12/25 03:45:46;;;;;;;1.15;0.65;;;0.10;99.90;;;;;;5109684;27;20047;-69
2021/12/25 03:58:53;;;;;;;0.70;0.47;;;0.20;99.90;;;;;;5122812;27;20130;-70
2021/12/25 04:06:27;;;;;;;1.73;0.60;;;0.00;99.90;;;;;;5128129;27;20054;-70
2021/12/25 04:08:52;;;;;;;0.60;0.40;;;0.00;99.90;;;;;;5101835;27;20115;-70
2021/12/25 04:11:27;;;;;;;1.73;0.75;;;-0.10;99.90;;;;;;5112181;27;20047;-70
2021/12/25 04:13:54;;;;;;;5.57;0.80;;;0.00;99.90;;;;;;5111254;27;20529;-69
2021/12/25 04:16:19;;;;;;;0.75;0.40;;;0.00;99.90;;;;;;5110851;27;20054;-70
2021/12/25 04:18:45;;;;;;;1.30;0.70;;;0.00;99.90;;;;;;5128508;27;20087;-70
2021/12/25 04:21:10;;;;;;;3.50;0.85;;;0.00;99.90;;;;;;5125868;27;20046;-70
2021/12/25 04:23:40;;;;;;;0.68;0.40;;;-0.10;99.90;;;;;;5129231;27;20138;-70
2021/12/25 04:26:06;;;;;;;1.50;0.80;;;-0.20;99.90;;;;;;5129473;27;20031;-70
2021/12/25 04:50:31;;;;;;;0.55;0.50;;;-0.30;99.90;;;;;;5108764;27;20142;-69
2021/12/25 05:03:57;;;;;;;1.27;0.50;;;-0.40;99.90;;;;;;5124292;27;20120;-69
2021/12/25 05:06:24;;;;;;;0.65;0.40;;;-0.50;99.90;;;;;;5112765;27;20054;-69
2021/12/25 05:08:50;;;;;;;5.80;0.68;;;-0.50;99.90;;;;;;5127541;27;20045;-69
2021/12/25 05:11:16;;;;;;;3.20;0.85;;;-0.50;99.90;;;;;;5127118;27;20035;-69
2021/12/25 05:13:43;;;;;;;2.75;0.50;;;-0.40;99.90;;;;;;5125071;27;20039;-69
2021/12/25 05:16:09;;;;;;;2.50;0.73;;;-0.40;99.90;;;;;;5130432;27;20502;-69
2021/12/25 05:18:35;;;;;;;1.70;0.75;;;-0.60;99.90;;;;;;5127927;27;20106;-70
2021/12/25 05:21:01;;;;;;;0.57;0.40;;;-0.50;99.90;;;;;;5125467;27;20047;-70
2021/12/25 05:23:27;;;;;;;1.40;0.70;;;-0.60;99.90;;;;;;5108404;27;20071;-70
2021/12/25 05:25:53;;;;;;;1.80;0.73;;;-0.60;99.90;;;;;;5127008;27;20034;-70
2021/12/25 05:28:25;;;;;;;2.30;0.75;;;-0.60;99.90;;;;;;5130605;27;20027;-70
2021/12/25 05:30:52;;;;;;;1.88;0.50;;;-0.70;99.90;;;;;;5107263;27;20058;-70
2021/12/25 05:33:18;;;;;;;1.58;0.60;;;-0.70;99.90;;;;;;5142889;27;20059;-70
2021/12/25 05:35:43;;;;;;;1.65;0.65;;;-0.60;99.90;;;;;;5133191;27;20046;-70
2021/12/25 05:38:14;;;;;;;1.55;0.85;;;-0.60;99.90;;;;;;5107969;27;20122;-70
2021/12/25 05:40:40;;;;;;;0.75;0.38;;;-0.60;99.90;;;;;;5134340;27;20053;-70
2021/12/25 05:43:05;;;;;;;1.55;0.40;;;-0.60;99.90;;;;;;5134746;27;20790;-70
2021/12/25 05:45:32;;;;;;;4.30;0.60;;;-0.70;99.90;;;;;;5127236;27;20043;-70
2021/12/25 05:47:57;;;;;;;0.63;0.47;;;-0.60;99.90;;;;;;5114029;27;20082;-70
2021/12/25 05:50:23;;;;;;;2.80;0.75;;;-0.50;99.90;;;;;;5127743;27;20090;-70
2021/12/25 05:52:48;;;;;;;2.65;0.65;;;-0.60;99.90;;;;;;5108836;28;20039;-70
2021/12/25 05:55:14;;;;;;;2.33;0.60;;;-0.70;99.90;;;;;;5118087;27;20059;-70
2021/12/25 05:57:40;;;;;;;0.57;0.52;;;-0.80;99.90;;;;;;5123479;27;20565;-70
2021/12/25 06:00:07;;;;;;;2.70;0.45;;;-0.90;99.90;;;;;;5127463;28;20666;-70
2021/12/25 06:02:33;;;;;;;7.65;1.63;;;-0.90;99.90;;;;;;5127968;28;20043;-69
2021/12/25 06:05:00;;;;;;;1.20;0.63;;;-0.90;99.90;;;;;;5123752;28;20048;-70
2021/12/25 06:07:26;;;;;;;0.65;0.43;;;-0.80;99.90;;;;;;5107153;28;20062;-69
2021/12/25 06:09:51;;;;;;;1.90;0.75;;;-0.70;99.90;;;;;;5126808;28;20632;-69
2021/12/25 06:12:17;;;;;;;0.77;0.47;;;-0.80;99.90;;;;;;5128293;28;20035;-69
2021/12/25 06:14:44;;;;;;;2.33;0.73;;;-0.80;99.90;;;;;;5138425;27;20066;-69
2021/12/25 06:17:10;;;;;;;1.10;0.70;;;-0.90;99.90;;;;;;5105561;28;20063;-69
2021/12/25 06:19:36;;;;;;;3.25;0.60;;;-0.90;99.90;;;;;;5130295;27;20084;-69
2021/12/25 06:22:01;;;;;;;5.32;0.93;;;-1.00;99.90;;;;;;5110062;27;20053;-69
2021/12/25 06:24:29;;;;;;;1.58;0.50;;;-1.00;99.90;;;;;;5132743;27;20047;-69
2021/12/25 06:26:55;;;;;;;2.13;0.70;;;-1.00;99.90;;;;;;5134947;27;20505;-69
2021/12/25 06:29:20;;;;;;;0.80;0.60;;;-0.90;99.90;;;;;;5132504;27;20042;-69
2021/12/25 06:31:47;;;;;;;1.83;0.60;;;-1.00;99.90;;;;;;5131930;27;20712;-69
2021/12/25 06:34:12;;;;;;;5.50;0.75;;;-1.10;99.90;;;;;;5131822;27;20049;-69
2021/12/25 06:36:38;;;;;;;1.88;0.60;;;-1.00;99.90;;;;;;5134440;27;20039;-69
2021/12/25 06:39:04;;;;;;;2.15;0.82;;;-1.10;99.90;;;;;;5131978;27;20077;-68
2021/12/25 06:41:30;;;;;;;4.95;0.80;;;-1.10;99.90;;;;;;5142734;27;20054;-69
2021/12/25 06:43:56;;;;;;;3.25;0.50;;;-1.00;99.90;;;;;;5113543;27;20047;-69
2021/12/25 06:46:22;;;;;;;0.80;0.50;;;-1.00;99.90;;;;;;5111287;27;20114;-68
2021/12/25 06:48:47;;;;;;;2.97;0.80;;;-0.90;99.90;;;;;;5131433;27;20114;-68
2021/12/25 06:51:13;;;;;;;1.08;0.70;;;-0.90;99.90;;;;;;5113038;27;20047;-69
2021/12/25 06:53:39;;;;;;;4.40;0.98;;;-1.00;99.90;;;;;;5131518;27;20391;-68
2021/12/25 06:56:05;;;;;;;2.17;1.10;;;-1.10;99.90;;;;;;5143764;27;20039;-68
2021/12/25 06:58:30;;;;;;;2.38;0.70;;;-1.10;99.90;;;;;;5112034;27;20039;-68
2021/12/25 07:00:56;;;;;;;1.60;0.55;;;-1.00;99.90;;;;;;5130616;27;20054;-68
2021/12/25 07:03:21;;;;;;;17.40;2.85;;;-1.00;99.90;;;;;;5115018;27;20370;-68
2021/12/25 07:05:47;;;;;;;1.20;0.60;;;-0.90;99.90;;;;;;5142332;27;20043;-68
2021/12/25 07:08:12;;;;;;;1.75;0.60;;;-1.10;99.90;;;;;;5112509;27;20500;-68
2021/12/25 07:10:38;;;;;;;1.00;0.50;;;-1.10;99.90;;;;;;5131535;27;20111;-68
2021/12/25 07:13:04;;;;;;;3.17;0.90;;;-1.00;99.90;;;;;;5138212;27;20050;-69
2021/12/25 07:15:29;;;;;;;1.95;0.60;;;-1.10;99.90;;;;;;5132181;27;20501;-68
2021/12/25 07:17:55;;;;;;;1.95;0.90;;;-1.20;99.90;;;;;;5128838;27;20035;-68
2021/12/25 07:20:21;;;;;;;2.03;0.70;;;-1.20;99.90;;;;;;5130276;27;20485;-68
2021/12/25 07:22:47;;;;;;;2.53;0.82;;;-1.10;99.90;;;;;;5124610;27;20061;-68
2021/12/25 07:25:12;;;;;;;5.78;0.93;;;-1.10;99.90;;;;;;5133874;27;20055;-68
2021/12/25 07:27:38;;;;;;;3.13;1.08;;;-1.00;99.90;;;;;;5111367;27;20118;-68
2021/12/25 07:30:05;;;;;;;2.35;1.05;;;-0.90;99.90;;;;;;5111494;27;20478;-68
2021/12/25 07:32:31;;;;;;;1.92;1.13;;;-1.10;99.90;;;;;;5113847;27;20055;-69
2021/12/25 07:34:57;;;;;;;5.28;1.20;;;-1.00;99.90;;;;;;5108704;27;20046;-68
2021/12/25 07:37:23;;;;;;;1.55;0.70;;;-1.00;99.90;;;;;;5110271;27;20047;-68
2021/12/25 07:39:48;;;;;;;3.88;0.77;;;-0.80;99.90;;;;;;5121980;27;20051;-69
2021/12/25 07:42:14;;;;;;;2.75;1.25;;;-0.90;99.90;;;;;;5142581;27;20058;-67
2021/12/25 07:44:39;;;;;;;3.15;0.55;;;-1.10;99.90;;;;;;5128755;27;20533;-67
2021/12/25 07:47:10;;;;;;;2.40;1.13;;;-1.10;99.90;;;;;;5110179;27;20482;-68
2021/12/25 07:49:37;;;;;;;1.35;0.60;;;-1.10;99.90;;;;;;5123146;27;20125;-67
2021/12/25 07:52:04;;;;;;;3.05;0.80;;;-1.00;99.90;;;;;;5112176;27;20116;-68
2021/12/25 07:54:29;;;;;;;3.58;0.50;;;-1.10;99.90;;;;;;5129738;27;20047;-68
2021/12/25 07:56:55;;;;;;;2.03;0.65;;;-1.00;99.90;;;;;;5130310;27;20108;-67
2021/12/25 07:59:21;;;;;;;1.65;0.47;;;-1.00;99.90;;;;;;5129504;27;20034;-68
2021/12/25 08:01:46;;;;;;;3.90;0.70;;;-0.90;99.90;;;;;;5135740;27;20027;-68
2021/12/25 08:04:12;;;;;;;3.10;0.73;;;-1.00;99.90;;;;;;5138927;27;20043;-67
2021/12/25 08:06:39;;;;;;;5.63;2.13;;;-0.90;99.90;;;;;;5109854;27;20179;-68
2021/12/25 08:09:05;;;;;;;4.65;1.02;;;-1.00;99.90;;;;;;5126037;27;20050;-68
2021/12/25 08:11:31;;;;;;;8.82;1.88;;;-1.10;99.90;;;;;;5128525;27;20077;-68
2021/12/25 08:13:57;;;;;;;2.83;0.80;;;-1.10;99.90;;;;;;5129960;27;20442;-68
2021/12/25 08:16:23;;;;;;;2.63;1.00;;;-1.10;99.90;;;;;;5129747;27;20120;-68
2021/12/25 08:18:49;;;;;;;1.98;0.88;;;-1.20;99.90;;;;;;5118307;27;20074;-68
2021/12/25 08:21:14;;;;;;;2.40;0.80;;;-1.20;99.90;;;;;;5133961;27;20438;-68
2021/12/25 08:23:40;;;;;;;2.63;0.80;;;-1.20;99.90;;;;;;5141979;27;20490;-68
2021/12/25 08:26:08;;;;;;;4.88;1.08;;;-1.10;99.90;;;;;;5125730;27;20402;-68
2021/12/25 08:28:33;;;;;;;2.47;0.60;;;-1.10;99.90;;;;;;5120319;27;20134;-67
2021/12/25 08:30:59;;;;;;;4.20;1.00;;;-1.20;99.90;;;;;;5130794;27;20195;-68
2021/12/25 08:33:25;;;;;;;6.03;1.02;;;-1.10;99.90;;;;;;5128596;27;20054;-68
2021/12/25 08:35:51;;;;;;;2.08;1.13;;;-1.20;99.90;;;;;;5119368;27;20043;-67
2021/12/25 08:38:16;;;;;;;2.15;0.55;;;-1.10;99.90;;;;;;5119952;27;20759;-67
2021/12/25 08:40:43;;;;;;;2.80;0.82;;;-0.90;99.90;;;;;;5102021;27;20398;-68
2021/12/25 08:43:09;;;;;;;8.68;1.17;;;-1.10;99.90;;;;;;5125596;27;20054;-68
2021/12/25 08:45:46;;;;;;;2.08;0.75;;;-0.90;99.90;;;;;;5103892;27;20035;-68
2021/12/25 08:48:15;;;;;;;5.82;1.42;;;-1.00;99.90;;;;;;5126165;27;20057;-69
2021/12/25 08:50:44;;;;;;;1.42;0.90;;;-1.00;99.90;;;;;;5128011;27;20502;-68
2021/12/25 08:53:10;;;;;;;3.90;1.05;;;-1.00;99.90;;;;;;5140337;27;20065;-68
2021/12/25 08:55:36;;;;;;;2.70;0.98;;;-0.90;99.90;;;;;;5134039;27;20039;-68
2021/12/25 08:58:02;;;;;;;1.50;0.88;;;-0.90;99.90;;;;;;5122214;27;20047;-67
2021/12/25 09:00:28;;;;;;;2.05;1.00;;;-1.00;99.90;;;;;;5139553;27;20035;-67
2021/12/25 09:02:54;;;;;;;2.80;1.60;;;-0.90;99.90;;;;;;5111693;27;20047;-67
2021/12/25 09:05:19;;;;;;;5.40;1.80;;;-0.90;99.90;;;;;;5106974;27;20694;-67
2021/12/25 09:07:45;;;;;;;13.45;2.15;;;-0.90;99.90;;;;;;5110125;27;20050;-67
2021/12/25 09:10:11;;;;;;;3.53;1.48;;;-0.90;99.90;;;;;;5126831;27;20057;-68
2021/12/25 09:12:41;;;;;;;5.10;1.60;;;-0.90;99.90;;;;;;5133988;27;20063;-68
2021/12/25 09:15:08;;;;;;;4.45;1.20;;;-0.90;99.90;;;;;;5140968;27;20043;-68
2021/12/25 09:17:33;;;;;;;2.85;1.30;;;-0.80;99.90;;;;;;5113493;27;20043;-68
2021/12/25 09:19:59;;;;;;;4.25;0.90;;;-0.80;99.90;;;;;;5111391;27;20449;-68
2021/12/25 09:22:25;;;;;;;2.08;1.20;;;-0.90;99.90;;;;;;5103249;27;20047;-69
2021/12/25 09:24:50;;;;;;;2.78;0.90;;;-0.90;99.90;;;;;;5127418;27;20046;-68
2021/12/25 09:27:16;;;;;;;4.15;1.10;;;-0.80;99.90;;;;;;5127955;27;20170;-67
2021/12/25 09:29:42;;;;;;;4.97;1.27;;;-0.80;99.90;;;;;;5125675;27;20712;-67
2021/12/25 09:32:07;;;;;;;3.28;1.10;;;-0.70;99.90;;;;;;5127785;27;20138;-67
2021/12/25 09:34:33;;;;;;;5.57;1.42;;;-0.70;99.90;;;;;;5128160;27;20082;-68
2021/12/25 09:36:59;;;;;;;13.75;1.88;;;-0.60;99.90;;;;;;5133334;27;20070;-67
2021/12/25 09:39:24;;;;;;;10.68;1.77;;;-0.70;99.90;;;;;;5131302;27;20043;-68
2021/12/25 09:41:50;;;;;;;7.97;2.80;;;-0.60;99.90;;;;;;5109461;27;20415;-68
2021/12/25 09:44:16;;;;;;;13.45;2.45;;;-0.70;99.90;;;;;;5128013;27;20130;-68
2021/12/25 09:46:41;;;;;;;3.45;1.52;;;-0.70;99.90;;;;;;5133834;27;20038;-68
2021/12/25 09:49:09;;;;;;;2.75;1.60;;;-0.70;99.90;;;;;;5106803;27;20065;-68
2021/12/25 09:51:34;;;;;;;3.58;1.35;;;-0.60;99.90;;;;;;5126864;27;20463;-68
2021/12/25 09:54:07;;;;;;;4.38;1.25;;;-0.70;99.90;;;;;;5109057;27;20058;-68
2021/12/25 09:56:35;;;;;;;4.83;0.70;;;-0.60;99.90;;;;;;5108444;27;20157;-68
2021/12/25 09:59:03;;;;;;;6.30;1.15;;;-0.60;99.90;;;;;;5133332;27;20291;-68
2021/12/25 10:01:38;;;;;;;3.15;1.08;;;-0.60;99.90;;;;;;5149802;27;20043;-68
2021/12/25 10:04:05;;;;;;;4.22;0.73;;;-0.60;99.90;;;;;;5141724;27;20118;-68
2021/12/25 10:06:36;;;;;;;2.75;1.27;;;-0.50;99.90;;;;;;5117705;27;20301;-68
2021/12/25 10:09:16;;;;;;;2.20;0.85;;;-0.50;99.90;;;;;;5134846;27;20046;-68
2021/12/25 10:12:10;;;;;;;4.43;1.10;;;-0.40;99.90;;;;;;5131586;27;20053;-68
2021/12/25 10:14:36;;;;;;;;;;;-0.30;99.90;;;;;;5134924;27;20053;-68
2021/12/25 10:17:21;;;;;;;2.55;0.75;;;-0.20;99.90;;;;;;5134995;27;19919;-68
2021/12/25 10:20:17;;;;;;;5.38;1.13;;;-0.30;99.90;;;;;;5112500;27;20108;-68
2021/12/25 10:22:52;;;;;;;2.58;1.00;;;-0.20;99.90;;;;;;5112776;27;20039;-68
2021/12/25 10:25:18;;;;;;;3.75;0.95;;;-0.30;99.90;;;;;;5118245;27;20046;-68
2021/12/25 10:27:50;;;;;;;3.13;0.60;;;-0.20;99.90;;;;;;5154107;27;20431;-68
2021/12/25 10:30:16;;;;;;;3.33;1.05;;;-0.20;99.90;;;;;;5144365;27;20042;-68
2021/12/25 10:32:42;;;;;;;5.55;0.95;;;-0.20;99.90;;;;;;5115406;27;20051;-68
2021/12/25 10:35:20;;;;;;;1.60;0.80;;;-0.10;99.90;;;;;;5143125;27;20080;-68
2021/12/25 10:37:47;;;;;;;5.60;0.68;;;-0.20;99.90;;;;;;5120576;27;20046;-68
2021/12/25 10:40:32;;;;;;;1.00;0.75;;;0.00;99.90;;;;;;5114724;27;20088;-69
2021/12/25 10:43:00;;;;;;;2.47;1.15;;;-0.10;99.90;;;;;;5116907;27;20425;-68
2021/12/25 10:45:28;;;;;;;6.07;1.27;;;0.00;99.90;;;;;;5136225;27;20114;-68
2021/12/25 10:48:07;;;;;;;6.13;1.45;;;-0.10;99.90;;;;;;5149801;27;20051;-68
2021/12/25 10:50:39;;;;;;;2.17;1.10;;;-0.10;99.90;;;;;;5131451;27;20072;-68
2021/12/25 10:53:32;;;;;;;7.43;1.05;;;-0.10;99.90;;;;;;5131570;27;20482;-68
2021/12/25 10:56:07;;;;;;;2.60;1.17;;;-0.10;99.90;;;;;;5137445;27;20046;-68
2021/12/25 10:58:32;;;;;;;1.23;0.80;;;-0.10;99.90;;;;;;5135375;27;20090;-69
2021/12/25 11:00:58;;;;;;;5.07;1.85;;;0.00;99.90;;;;;;5144155;27;20412;-68
2021/12/25 11:03:30;;;;;;;2.20;0.77;;;0.00;99.90;;;;;;5121263;27;20036;-68
2021/12/25 11:06:02;;;;;;;7.63;2.35;;;0.10;99.90;;;;;;5125430;27;20117;-68
2021/12/25 11:08:30;;;;;;;6.18;1.00;;;0.20;99.90;;;;;;5120576;27;20059;-67
2021/12/25 11:11:06;;;;;;;4.68;1.50;;;0.10;99.90;;;;;;5111675;27;20394;-66
2021/12/25 11:13:48;;;;;;;1.35;0.70;;;0.30;99.90;;;;;;5136643;27;20043;-67
2021/12/25 11:16:15;;;;;;;3.08;0.90;;;0.20;99.90;;;;;;5118982;27;20372;-66
2021/12/25 11:19:08;;;;;;;2.70;0.77;;;0.20;99.90;;;;;;5122853;27;20035;-67
2021/12/25 11:21:58;;;;;;;2.60;0.80;;;0.20;99.90;;;;;;5135818;27;20063;-67
2021/12/25 11:24:36;;;;;;;1.42;0.98;;;0.20;99.90;;;;;;5111010;27;20039;-68
2021/12/25 11:27:06;;;;;;;3.65;0.98;;;0.20;99.90;;;;;;5138173;27;20039;-69
2021/12/25 11:29:34;;;;;;;2.30;1.00;;;0.30;99.90;;;;;;5130939;27;20077;-68
2021/12/25 11:32:02;;;;;;;4.43;1.48;;;0.30;99.90;;;;;;5127889;27;20084;-69
2021/12/25 11:34:28;;;;;;;4.15;1.52;;;0.30;99.90;;;;;;5128346;27;20046;-69
2021/12/25 11:36:57;;;;;;;6.78;1.42;;;0.30;99.90;;;;;;5119824;27;20502;-69
2021/12/25 11:39:25;;;;;;;2.22;1.17;;;0.40;99.90;;;;;;5121372;27;20402;-68
2021/12/25 11:41:56;;;;;;;1.58;1.13;;;0.40;99.90;;;;;;5106122;27;20055;-68
2021/12/25 11:44:36;;;;;;;6.07;1.35;;;0.40;99.90;;;;;;5109965;27;20417;-69
2021/12/25 11:47:03;;;;;;;3.20;1.50;;;0.70;99.90;;;;;;5113061;27;20573;-69
2021/12/25 11:49:29;;;;;;;7.47;0.82;;;0.80;99.90;;;;;;5114011;27;20087;-69
2021/12/25 11:52:11;;;;;;;1.88;0.80;;;0.90;99.90;;;;;;5105839;27;20058;-69
2021/12/25 11:57:51;;;;;;;3.22;0.80;;;1.20;99.90;;;;;;5148371;27;20510;-70
2021/12/25 12:00:37;;;;;;;3.58;1.23;;;1.30;99.90;;;;;;5131479;27;20062;-70
2021/12/25 12:03:04;;;;;;;3.33;1.23;;;1.50;99.90;;;;;;5110657;27;20047;-70
2021/12/25 12:05:32;;;;;;;1.52;0.95;;;1.70;99.90;;;;;;5130739;27;20047;-71
2021/12/25 12:08:09;;;;;;;2.65;1.00;;;2.00;99.90;;;;;;5121980;27;20046;-70
2021/12/25 12:10:57;;;;;;;1.40;0.90;;;2.10;99.90;;;;;;5132653;27;20719;-70
2021/12/25 12:13:28;;;;;;;7.07;2.53;;;2.20;99.90;;;;;;5097819;28;20040;-70
2021/12/25 12:15:58;;;;;;;2.20;0.90;;;2.50;99.90;;;;;;5123767;27;20086;-70
2021/12/25 12:18:27;;;;;;;2.10;0.90;;;2.70;99.90;;;;;;5126258;27;20517;-70
2021/12/25 12:20:59;;;;;;;2.50;0.88;;;2.80;99.90;;;;;;5134172;27;20436;-71
2021/12/25 12:26:13;;;;;;;3.13;1.15;;;2.90;99.90;;;;;;5110599;27;20478;-71
2021/12/25 12:28:52;;;;;;;2.40;1.50;;;3.00;99.90;;;;;;5140771;27;20513;-71
2021/12/25 12:31:37;;;;;;;1.40;0.82;;;2.90;99.90;;;;;;5133707;27;20047;-71
2021/12/25 12:34:32;;;;;;;3.08;1.10;;;3.00;99.90;;;;;;5128256;27;20045;-71
2021/12/25 12:37:16;;;;;;;3.97;1.00;;;2.80;99.90;;;;;;5110376;28;20039;-71
2021/12/25 12:39:54;;;;;;;;;;;2.90;99.90;;;;;;5106296;27;20055;-71
2021/12/25 12:45:14;;;;;;;1.60;0.80;;;2.90;99.90;;;;;;5109733;27;20059;-71
2021/12/25 12:47:40;;;;;;;2.25;1.30;;;3.00;99.90;;;;;;5110388;27;20103;-71
2021/12/25 12:50:08;;;;;;;6.57;1.25;;;3.00;99.90;;;;;;5111865;27;20501;-70
2021/12/25 12:52:40;;;;;;;3.90;0.90;;;3.10;99.90;;;;;;5126117;27;20122;-71
2021/12/25 12:55:29;;;;;;;4.28;1.25;;;3.30;99.90;;;;;;5114993;27;20047;-71
2021/12/25 12:58:26;;;;;;;6.60;1.90;;;3.20;99.90;;;;;;5107801;27;20054;-71
2021/12/25 13:00:59;;;;;;;5.70;1.52;;;3.40;99.90;;;;;;5111654;27;20055;-71
2021/12/25 13:03:27;;;;;;;2.92;1.60;;;3.40;99.90;;;;;;5127250;27;20047;-70
2021/12/25 13:06:02;;;;;;;2.33;1.38;;;3.50;99.90;;;;;;5129480;27;20039;-70
2021/12/25 13:08:31;;;;;;;5.75;3.03;;;3.70;99.90;;;;;;5127143;27;20035;-70
2021/12/25 13:11:08;;;;;;;10.32;2.15;;;4.00;99.90;;;;;;5114380;27;20104;-70
2021/12/25 13:13:39;;;;;;;6.30;1.70;;;4.10;99.90;;;;;;5110266;27;20482;-71
2021/12/25 13:16:12;;;;;;;4.63;2.25;;;4.30;99.90;;;;;;5121973;27;20046;-71
2021/12/25 13:18:47;;;;;;;7.57;3.30;;;4.30;99.90;;;;;;5130744;27;20521;-71
2021/12/25 13:21:16;;;;;;;6.38;2.20;;;4.40;99.90;;;;;;5126547;27;20782;-71
2021/12/25 13:23:53;;;;;;;6.25;3.22;;;4.50;99.90;;;;;;5113836;27;20091;-70
2021/12/25 13:26:35;;;;;;;6.00;1.58;;;4.60;99.90;;;;;;5129602;27;20049;-69
2021/12/25 13:29:07;;;;;;;2.33;1.38;;;4.60;99.90;;;;;;5107469;27;20139;-70
2021/12/25 13:31:36;;;;;;;1.85;0.90;;;4.80;99.90;;;;;;5101299;28;20047;-70
2021/12/25 13:34:07;;;;;;;3.17;1.17;;;4.80;99.90;;;;;;5123433;27;20103;-70
2021/12/25 13:36:35;;;;;;;1.92;1.05;;;4.60;99.90;;;;;;5124975;27;20070;-71
2021/12/25 13:39:03;;;;;;;3.72;1.17;;;4.70;99.00;;;;;;5137639;27;20039;-70
2021/12/25 13:41:50;;;;;;;2.20;0.95;;;4.40;99.90;;;;;;5124117;27;20047;-70
2021/12/25 13:44:30;;;;;;;12.50;3.60;;;4.20;99.90;;;;;;5126778;27;20038;-71
2021/12/25 13:47:12;;;;;;;4.88;2.00;;;3.90;99.90;;;;;;5109317;27;20054;-71
2021/12/25 13:49:46;;;;;;;2.25;1.40;;;3.60;99.90;;;;;;5104326;28;20057;-71
2021/12/25 13:52:33;;;;;;;2.40;1.33;;;3.10;99.90;;;;;;5105697;27;20499;-71
2021/12/25 13:55:06;;;;;;;3.30;1.65;;;3.00;99.90;;;;;;5101596;28;20050;-71
2021/12/25 13:57:33;;;;;;;;;;;2.90;99.90;;;;;;5107402;28;20100;-71
2021/12/25 14:00:04;;;;;;;4.97;1.52;;;2.70;99.90;;;;;;5107692;28;19923;-71
2021/12/25 14:02:30;;;;;;;32.15;2.60;;;2.50;99.90;;;;;;5128525;28;20043;-71
2021/12/25 14:04:57;;;;;;;1.02;0.93;;;2.30;99.90;;;;;;5127056;27;20051;-71
2021/12/25 14:07:27;;;;;;;7.93;1.50;;;2.20;99.90;;;;;;5141371;27;20090;-71
2021/12/25 14:09:59;;;;;;;3.20;1.33;;;2.00;99.90;;;;;;5111157;27;20048;-71
2021/12/25 14:12:27;;;;;;;4.07;0.95;;;1.90;99.90;;;;;;5129749;27;20047;-71
2021/12/25 14:14:55;;;;;;;1.35;1.15;;;1.90;99.90;;;;;;5128157;28;20062;-72
2021/12/25 14:17:21;;;;;;;3.13;1.40;;;2.00;99.90;;;;;;5128737;27;20043;-71
2021/12/25 14:19:47;;;;;;;5.85;2.08;;;1.80;99.90;;;;;;5128364;27;20047;-71
2021/12/25 14:22:13;;;;;;;3.88;1.65;;;1.80;99.90;;;;;;5109219;28;20486;-71
2021/12/25 14:24:44;;;;;;;1.65;0.93;;;1.90;99.90;;;;;;5107739;27;20094;-71
2021/12/25 14:27:21;;;;;;;5.57;2.75;;;1.80;99.90;;;;;;5128335;27;20533;-71
2021/12/25 14:29:48;;;;;;;4.43;1.67;;;1.80;99.90;;;;;;5126260;27;20048;-72
2021/12/25 14:32:22;;;;;;;2.47;1.42;;;1.70;99.90;;;;;;5128021;27;20072;-72
2021/12/25 14:34:49;;;;;;;3.30;1.23;;;1.50;99.90;;;;;;5108963;28;20047;-71